createdAt,value
2023-03-02T00:02:01.371Z,7.13
2023-03-02T00:04:45.475Z,5.27
2023-03-02T00:07:20.025Z,8.77
2023-03-02T00:09:48.259Z,9.03
2023-03-02T00:12:16.090Z,7.40
2023-03-02T00:14:43.146Z,6.17
2023-03-02T00:17:10.741Z,8.20
2023-03-02T00:19:37.990Z,6.57
2023-03-02T00:22:05.271Z,7.67
2023-03-02T00:24:32.554Z,7.40
2023-03-02T00:26:59.528Z,7.63
2023-03-02T00:29:26.581Z,7.20
2023-03-02T00:31:54.408Z,10.33
2023-03-02T00:34:21.465Z,9.90
2023-03-02T00:36:49.696Z,8.60
2023-03-02T00:39:20.364Z,8.27
2023-03-02T00:41:48.621Z,6.67
2023-03-02T00:44:17.854Z,9.83
2023-03-02T00:46:45.222Z,7.00
2023-03-02T00:49:13.143Z,9.97
2023-03-02T00:51:40.138Z,7.47
2023-03-02T00:54:07.195Z,9.73
2023-03-02T00:56:34.694Z,9.77
2023-03-02T00:59:06.467Z,7.77
2023-03-02T01:01:33.495Z,9.40
2023-03-02T01:04:00.450Z,10.57
2023-03-02T01:06:27.412Z,5.83
2023-03-02T01:08:54.461Z,6.37
2023-03-02T01:11:23.235Z,7.83
2023-03-02T01:13:50.521Z,8.40
2023-03-02T01:16:17.695Z,6.97
2023-03-02T01:18:44.748Z,9.70
2023-03-02T01:21:15.202Z,6.43
2023-03-02T01:23:42.573Z,9.63
2023-03-02T01:26:10.191Z,7.00
2023-03-02T01:28:37.347Z,7.50
2023-03-02T01:31:04.865Z,10.47
2023-03-02T01:33:32.598Z,7.27
2023-03-02T01:35:59.803Z,8.63
2023-03-02T01:38:27.148Z,7.63
2023-03-02T01:40:54.263Z,6.90
2023-03-02T01:43:21.292Z,8.60
2023-03-02T01:45:53.551Z,8.23
2023-03-02T01:48:32.723Z,6.53
2023-03-02T01:51:02.485Z,7.23
2023-03-02T01:53:32.840Z,9.53
2023-03-02T01:56:01.898Z,8.40
2023-03-02T01:58:34.573Z,7.70
2023-03-02T02:01:01.610Z,6.17
2023-03-02T02:03:31.541Z,8.50
2023-03-02T02:06:33.333Z,9.10
2023-03-02T02:09:02.153Z,8.20
2023-03-02T02:11:29.155Z,6.20
2023-03-02T02:14:01.023Z,9.00
2023-03-02T02:16:31.660Z,7.27
2023-03-02T02:18:58.976Z,8.87
2023-03-02T02:21:28.032Z,6.63
2023-03-02T02:24:19.786Z,6.97
2023-03-02T02:26:55.081Z,7.93
2023-03-02T02:29:34.272Z,7.63
2023-03-02T02:32:06.977Z,8.17
2023-03-02T02:34:42.564Z,7.80
2023-03-02T02:37:23.840Z,8.10
2023-03-02T02:39:51.905Z,7.73
2023-03-02T02:42:32.074Z,6.73
2023-03-02T02:45:06.650Z,8.30
2023-03-02T02:47:34.397Z,10.60
2023-03-02T02:50:01.735Z,6.30
2023-03-02T02:52:29.244Z,7.63
2023-03-02T02:54:57.861Z,6.53
2023-03-02T02:57:28.665Z,9.03
2023-03-02T03:00:00.537Z,12.50
2023-03-02T03:02:30.963Z,9.80
2023-03-02T03:05:02.776Z,9.43
2023-03-02T03:07:31.874Z,8.80
2023-03-02T03:10:25.260Z,10.90
2023-03-02T03:12:52.491Z,11.33
2023-03-02T03:15:19.487Z,10.20
2023-03-02T03:17:57.328Z,14.33
2023-03-02T03:20:26.259Z,12.03
2023-03-02T03:22:53.614Z,9.97
2023-03-02T03:25:22.170Z,11.53
2023-03-02T03:27:50.127Z,13.53
2023-03-02T03:30:17.602Z,14.27
2023-03-02T03:32:45.035Z,12.80
2023-03-02T03:35:12.629Z,13.23
2023-03-02T03:37:41.208Z,16.60
2023-03-02T03:40:10.253Z,20.77
2023-03-02T03:42:39.839Z,22.07
2023-03-02T03:45:09.000Z,21.67
2023-03-02T03:47:36.974Z,18.77
2023-03-02T03:50:04.122Z,21.67
2023-03-02T03:52:31.206Z,21.57
2023-03-02T03:55:00.479Z,20.93
2023-03-02T03:57:28.750Z,22.53
2023-03-02T03:59:55.836Z,25.47
2023-03-02T04:02:23.036Z,24.47
2023-03-02T04:04:50.070Z,33.13
2023-03-02T04:07:17.326Z,27.70
2023-03-02T04:09:44.695Z,31.73
2023-03-02T04:12:11.744Z,29.83
2023-03-02T04:14:38.823Z,29.73
2023-03-02T04:17:07.200Z,29.60
2023-03-02T04:19:35.677Z,25.90
2023-03-02T04:22:04.266Z,30.90
2023-03-02T04:24:31.892Z,31.13
2023-03-02T04:26:59.055Z,29.60
2023-03-02T04:29:26.439Z,37.17
2023-03-02T04:31:53.472Z,35.33
2023-03-02T04:34:20.705Z,31.73
2023-03-02T04:36:47.673Z,32.10
2023-03-02T04:39:16.780Z,31.70
2023-03-02T04:41:44.741Z,33.13
2023-03-02T04:44:12.530Z,35.07
2023-03-02T04:46:41.808Z,33.00
2023-03-02T04:49:11.688Z,34.07
2023-03-02T04:51:41.600Z,34.63
2023-03-02T04:54:14.103Z,38.17
2023-03-02T04:56:41.111Z,39.63
2023-03-02T04:59:10.014Z,34.80
2023-03-02T05:01:36.997Z,37.67
2023-03-02T05:04:04.559Z,34.53
2023-03-02T05:06:31.889Z,40.37
2023-03-02T05:09:00.253Z,36.80
2023-03-02T05:11:28.430Z,35.67
2023-03-02T05:14:01.384Z,36.93
2023-03-02T05:16:32.040Z,39.97
2023-03-02T05:19:00.843Z,34.07
2023-03-02T05:21:28.399Z,37.67
2023-03-02T05:23:55.484Z,34.10
2023-03-02T05:26:22.936Z,37.03
2023-03-02T05:28:51.527Z,41.33
2023-03-02T05:31:30.930Z,41.53
2023-03-02T05:33:58.252Z,35.70
2023-03-02T05:36:25.197Z,38.93
2023-03-02T05:38:52.146Z,36.97
2023-03-02T05:41:19.264Z,40.00
2023-03-02T05:43:46.292Z,33.43
2023-03-02T05:46:13.233Z,38.60
2023-03-02T05:48:56.751Z,36.97
2023-03-02T05:51:23.717Z,39.20
2023-03-02T05:53:50.687Z,41.23
2023-03-02T05:56:17.906Z,39.53
2023-03-02T05:58:44.931Z,37.20
2023-03-02T06:01:15.151Z,37.97
2023-03-02T06:03:43.504Z,41.57
2023-03-02T06:06:14.249Z,34.43
2023-03-02T06:08:42.960Z,34.37
2023-03-02T06:11:11.190Z,37.43
2023-03-02T06:13:38.556Z,35.40
2023-03-02T06:16:06.162Z,37.53
2023-03-02T06:18:33.669Z,39.67
2023-03-02T06:21:00.591Z,36.20
2023-03-02T06:23:27.829Z,38.17
2023-03-02T06:25:55.064Z,36.50
2023-03-02T06:28:22.138Z,35.03
2023-03-02T06:30:49.968Z,39.93
2023-03-02T06:33:21.638Z,37.40
2023-03-02T06:35:49.668Z,44.90
2023-03-02T06:38:17.814Z,36.73
2023-03-02T06:40:45.149Z,37.17
2023-03-02T06:43:12.301Z,37.57
2023-03-02T06:45:39.422Z,38.43
2023-03-02T06:48:07.837Z,35.93
2023-03-02T06:50:34.983Z,35.63
2023-03-02T06:53:02.174Z,35.73
2023-03-02T06:55:30.176Z,37.00
2023-03-02T06:57:57.093Z,36.13
2023-03-02T07:00:28.411Z,33.90
2023-03-02T07:02:56.452Z,36.20
2023-03-02T07:05:24.508Z,33.33
2023-03-02T07:07:51.578Z,29.33
2023-03-02T07:10:18.876Z,30.63
2023-03-02T07:12:45.877Z,29.57
2023-03-02T07:15:14.477Z,32.07
2023-03-02T07:17:43.198Z,28.33
2023-03-02T07:20:12.183Z,30.17
2023-03-02T07:22:39.709Z,27.63
2023-03-02T07:25:07.727Z,28.27
2023-03-02T07:27:34.814Z,29.30
2023-03-02T07:30:01.796Z,30.67
2023-03-02T07:32:28.898Z,25.83
2023-03-02T07:34:55.877Z,27.07
2023-03-02T07:37:22.964Z,26.67
2023-03-02T07:39:50.332Z,25.60
2023-03-02T07:42:17.975Z,27.83
2023-03-02T07:44:44.920Z,30.23
2023-03-02T07:47:12.032Z,25.90
2023-03-02T07:49:39.239Z,28.37
2023-03-02T07:52:06.793Z,29.13
2023-03-02T07:54:33.839Z,28.87
2023-03-02T07:57:00.927Z,29.20
2023-03-02T07:59:28.520Z,26.63
2023-03-02T08:01:58.141Z,29.33
2023-03-02T08:04:25.693Z,27.93
2023-03-02T08:06:52.728Z,24.80
2023-03-02T08:09:19.824Z,25.60
2023-03-02T08:11:47.965Z,22.77
2023-03-02T08:14:15.956Z,24.80
2023-03-02T08:16:43.059Z,25.40
2023-03-02T08:19:10.640Z,23.70
2023-03-02T08:21:37.632Z,22.87
2023-03-02T08:24:05.286Z,23.40
2023-03-02T08:26:32.526Z,23.93
2023-03-02T08:28:59.888Z,23.60
2023-03-02T08:31:27.492Z,25.63
2023-03-02T08:33:54.588Z,22.60
2023-03-02T08:36:22.040Z,23.47
2023-03-02T08:38:49.769Z,26.03
2023-03-02T08:41:20.124Z,24.10
2023-03-02T08:43:47.966Z,24.17
2023-03-02T08:46:18.046Z,24.92
2023-03-02T08:48:45.795Z,22.70
2023-03-02T08:51:24.566Z,22.80
2023-03-02T08:53:55.379Z,22.70
2023-03-02T08:56:23.650Z,22.63
2023-03-02T08:58:52.224Z,21.03
2023-03-02T09:01:22.979Z,22.83
2023-03-02T09:03:50.489Z,22.40
2023-03-02T09:06:18.244Z,22.58
2023-03-02T09:08:45.535Z,20.73
2023-03-02T09:11:12.576Z,22.25
2023-03-02T09:13:39.647Z,19.98
2023-03-02T09:16:08.651Z,21.30
2023-03-02T09:18:36.649Z,20.70
2023-03-02T09:21:05.263Z,20.40
2023-03-02T09:23:33.170Z,20.50
2023-03-02T09:26:00.158Z,20.13
2023-03-02T09:28:27.174Z,23.60
2023-03-02T09:31:02.927Z,19.38
2023-03-02T09:33:30.793Z,21.70
2023-03-02T09:35:57.984Z,19.05
2023-03-02T09:38:25.210Z,19.45
2023-03-02T09:41:20.356Z,19.42
2023-03-02T09:44:33.433Z,18.52
2023-03-02T09:47:04.920Z,22.15
2023-03-02T09:49:37.562Z,19.50
2023-03-02T09:52:29.735Z,22.88
2023-03-02T09:55:11.419Z,19.83
2023-03-02T09:57:39.988Z,21.90
2023-03-02T10:00:31.177Z,17.10
2023-03-02T10:03:14.960Z,17.20
2023-03-02T10:05:45.166Z,17.20
2023-03-02T10:08:18.427Z,18.40
2023-03-02T10:11:07.618Z,15.82
2023-03-02T10:13:44.626Z,17.70
2023-03-02T10:16:28.991Z,19.65
2023-03-02T10:19:05.396Z,18.75
2023-03-02T10:21:38.556Z,17.70
2023-03-02T10:24:14.294Z,17.02
2023-03-02T10:26:44.271Z,17.35
2023-03-02T10:29:29.769Z,18.58
2023-03-02T10:32:06.517Z,17.20
2023-03-02T10:34:36.102Z,18.52
2023-03-02T10:37:03.073Z,17.08
2023-03-02T10:39:30.041Z,17.33
2023-03-02T10:42:02.584Z,16.60
2023-03-02T10:44:35.248Z,18.27
2023-03-02T10:47:02.179Z,16.88
2023-03-02T10:49:29.130Z,19.10
2023-03-02T10:52:02.400Z,15.20
2023-03-02T10:54:31.175Z,15.80
2023-03-02T10:57:04.201Z,16.65
2023-03-02T10:59:39.793Z,17.75
2023-03-02T11:02:27.919Z,17.52
2023-03-02T11:04:58.177Z,17.70
2023-03-02T11:07:28.613Z,16.55
2023-03-02T11:10:32.534Z,16.70
2023-03-02T11:13:01.302Z,16.35
2023-03-02T11:15:34.226Z,16.20
2023-03-02T11:18:12.511Z,17.65
2023-03-02T11:20:43.238Z,17.95
2023-03-02T11:23:35.143Z,17.35
2023-03-02T11:26:17.262Z,15.10
2023-03-02T11:29:31.613Z,15.25
2023-03-02T11:32:18.521Z,15.13
2023-03-02T11:34:57.285Z,16.20
2023-03-02T11:37:39.991Z,15.48
2023-03-02T11:40:19.107Z,15.63
2023-03-02T11:42:47.139Z,16.17
2023-03-02T11:45:14.029Z,19.57
2023-03-02T11:48:08.139Z,16.70
2023-03-02T11:50:45.972Z,16.60
2023-03-02T11:53:19.412Z,16.80
2023-03-02T11:55:48.794Z,16.93
2023-03-02T11:58:28.428Z,21.20
2023-03-02T12:00:57.019Z,17.40
2023-03-02T12:03:33.041Z,15.40
2023-03-02T12:06:26.387Z,17.50
2023-03-02T12:09:07.104Z,17.63
2023-03-02T12:11:38.880Z,16.17
2023-03-02T12:14:29.835Z,16.77
2023-03-02T12:17:20.201Z,20.00
2023-03-02T12:19:48.153Z,17.37
2023-03-02T12:22:26.909Z,17.33
2023-03-02T12:25:19.288Z,18.90
2023-03-02T12:27:49.653Z,18.33
2023-03-02T12:30:16.955Z,17.30
2023-03-02T12:32:48.461Z,17.57
2023-03-02T12:35:20.850Z,19.77
2023-03-02T12:37:47.875Z,17.47
2023-03-02T12:40:55.919Z,14.77
2023-03-02T12:43:26.042Z,18.30
2023-03-02T12:45:58.868Z,20.73
2023-03-02T12:48:36.142Z,18.80
2023-03-02T12:51:05.970Z,16.93
2023-03-02T12:53:32.997Z,19.40
2023-03-02T12:56:00.067Z,24.27
2023-03-02T12:58:29.070Z,18.03
2023-03-02T13:00:58.516Z,19.93
2023-03-02T13:03:27.181Z,17.73
2023-03-02T13:06:16.986Z,19.10
2023-03-02T13:08:48.309Z,21.93
2023-03-02T13:11:27.401Z,20.43
2023-03-02T13:13:54.504Z,21.83
2023-03-02T13:16:31.844Z,19.17
2023-03-02T13:19:03.922Z,15.87
2023-03-02T13:21:38.942Z,20.40
2023-03-02T13:24:33.910Z,19.03
2023-03-02T13:27:16.197Z,19.13
2023-03-02T13:29:43.204Z,20.57
2023-03-02T13:32:23.764Z,21.63
2023-03-02T13:35:02.617Z,18.40
2023-03-02T13:37:34.847Z,21.00
2023-03-02T13:40:04.332Z,20.97
2023-03-02T13:42:39.843Z,25.47
2023-03-02T13:45:31.115Z,23.70
2023-03-02T13:48:15.505Z,16.70
2023-03-02T13:51:01.566Z,22.40
2023-03-02T13:53:31.270Z,19.80
2023-03-02T13:56:00.357Z,20.10
2023-03-02T13:58:30.130Z,15.90
2023-03-02T14:00:57.623Z,14.83
2023-03-02T14:03:28.041Z,26.73
2023-03-02T14:05:56.378Z,23.63
2023-03-02T14:08:24.038Z,19.90
2023-03-02T14:10:53.950Z,19.40
2023-03-02T14:13:39.962Z,19.27
2023-03-02T14:16:07.441Z,15.37
2023-03-02T14:19:02.088Z,14.30
2023-03-02T14:21:29.204Z,16.70
2023-03-02T14:23:56.335Z,19.90
2023-03-02T14:26:34.974Z,19.83
2023-03-02T14:29:28.172Z,22.77
2023-03-02T14:31:56.991Z,24.07
2023-03-02T14:34:24.253Z,20.87
2023-03-02T14:36:53.625Z,23.83
2023-03-02T14:39:34.527Z,25.53
2023-03-02T14:42:01.681Z,25.50
2023-03-02T14:44:28.704Z,20.13
2023-03-02T14:46:57.210Z,29.23
2023-03-02T14:49:25.297Z,19.33
2023-03-02T14:51:58.333Z,27.87
2023-03-02T14:54:26.284Z,26.33
2023-03-02T14:56:53.432Z,27.10
2023-03-02T14:59:20.517Z,26.57
2023-03-02T15:01:47.519Z,33.67
2023-03-02T15:04:14.538Z,26.47
2023-03-02T15:06:43.569Z,31.73
2023-03-02T15:09:11.550Z,28.17
2023-03-02T15:11:38.630Z,29.67
2023-03-02T15:14:05.604Z,30.23
2023-03-02T15:16:32.578Z,30.67
2023-03-02T15:18:59.601Z,29.67
2023-03-02T15:21:26.560Z,36.73
2023-03-02T15:23:53.537Z,33.27
2023-03-02T15:26:20.582Z,29.80
2023-03-02T15:28:51.866Z,31.30
2023-03-02T15:31:19.548Z,36.07
2023-03-02T15:33:46.690Z,33.10
2023-03-02T15:36:14.494Z,31.10
2023-03-02T15:38:41.776Z,38.47
2023-03-02T15:41:13.596Z,29.80
2023-03-02T15:43:40.630Z,32.30
2023-03-02T15:46:09.789Z,27.03
2023-03-02T15:48:37.669Z,33.00
2023-03-02T15:51:08.675Z,37.17
2023-03-02T15:53:38.352Z,28.67
2023-03-02T15:56:13.928Z,33.20
2023-03-02T15:58:41.179Z,34.90
2023-03-02T16:01:09.927Z,35.37
2023-03-02T16:03:38.245Z,37.47
2023-03-02T16:06:05.838Z,37.90
2023-03-02T16:08:32.864Z,36.77
2023-03-02T16:11:06.921Z,32.03
2023-03-02T16:13:34.496Z,32.20
2023-03-02T16:16:03.308Z,30.87
2023-03-02T16:18:30.685Z,34.17
2023-03-02T16:20:57.645Z,35.93
2023-03-02T16:23:24.644Z,36.53
2023-03-02T16:25:52.449Z,31.23
2023-03-02T16:28:20.060Z,33.27
2023-03-02T16:30:47.683Z,35.50
2023-03-02T16:33:17.393Z,37.33
2023-03-02T16:35:44.868Z,32.40
2023-03-02T16:38:12.043Z,35.43
2023-03-02T16:40:40.558Z,34.83
2023-03-02T16:43:10.548Z,31.63
2023-03-02T16:45:37.827Z,35.20
2023-03-02T16:48:05.740Z,35.23
2023-03-02T16:50:33.264Z,45.03
2023-03-02T16:53:00.383Z,34.37
2023-03-02T16:55:27.724Z,32.97
2023-03-02T16:57:54.721Z,38.10
2023-03-02T17:00:22.950Z,35.63
2023-03-02T17:02:51.070Z,40.67
2023-03-02T17:05:19.834Z,40.70
2023-03-02T17:07:47.327Z,38.03
2023-03-02T17:10:19.859Z,35.73
2023-03-02T17:12:47.242Z,34.67
2023-03-02T17:15:14.438Z,41.80
2023-03-02T17:17:41.645Z,47.57
2023-03-02T17:20:11.390Z,38.87
2023-03-02T17:22:38.707Z,41.17
2023-03-02T17:25:06.457Z,37.43
2023-03-02T17:27:33.398Z,39.87
2023-03-02T17:30:00.512Z,36.73
2023-03-02T17:32:27.638Z,38.40
2023-03-02T17:34:54.769Z,42.23
2023-03-02T17:37:22.022Z,46.10
2023-03-02T17:39:52.834Z,33.10
2023-03-02T17:42:19.918Z,44.00
2023-03-02T17:44:46.839Z,43.87
2023-03-02T17:47:15.506Z,48.73
2023-03-02T17:49:45.772Z,42.20
2023-03-02T17:52:14.262Z,41.30
2023-03-02T17:54:42.071Z,42.27
2023-03-02T17:57:09.320Z,42.90
2023-03-02T17:59:36.458Z,40.60
2023-03-02T18:02:03.855Z,38.73
2023-03-02T18:04:30.890Z,43.00
2023-03-02T18:06:57.995Z,38.63
2023-03-02T18:09:24.966Z,44.03
2023-03-02T18:11:51.961Z,53.33
2023-03-02T18:14:20.640Z,49.03
2023-03-02T18:16:48.266Z,41.83
2023-03-02T18:19:15.420Z,44.00
2023-03-02T18:21:42.663Z,45.37
2023-03-02T18:24:10.181Z,41.23
2023-03-02T18:26:37.743Z,41.33
2023-03-02T18:29:05.496Z,44.60
2023-03-02T18:31:34.198Z,49.43
2023-03-02T18:34:02.282Z,47.03
2023-03-02T18:36:30.177Z,45.30
2023-03-02T18:38:57.556Z,39.17
2023-03-02T18:41:25.048Z,48.63
2023-03-02T18:43:52.514Z,38.30
2023-03-02T18:46:22.532Z,45.50
2023-03-02T18:48:50.705Z,40.53
2023-03-02T18:51:19.216Z,40.07
2023-03-02T18:53:47.103Z,39.03
2023-03-02T18:56:14.706Z,40.53
2023-03-02T18:58:42.068Z,40.33
2023-03-02T19:01:09.783Z,41.13
2023-03-02T19:03:38.690Z,43.77
2023-03-02T19:06:07.442Z,46.37
2023-03-02T19:08:37.602Z,39.27
2023-03-02T19:11:06.198Z,45.27
2023-03-02T19:13:33.608Z,50.10
2023-03-02T19:16:02.120Z,41.53
2023-03-02T19:18:30.102Z,38.27
2023-03-02T19:20:57.833Z,39.97
2023-03-02T19:23:25.372Z,36.40
2023-03-02T19:25:53.295Z,41.90
2023-03-02T19:28:21.770Z,37.50
2023-03-02T19:30:49.571Z,40.77
2023-03-02T19:33:16.568Z,41.10
2023-03-02T19:35:43.978Z,37.77
2023-03-02T19:38:11.675Z,42.07
2023-03-02T19:40:38.994Z,42.10
2023-03-02T19:43:06.285Z,39.77
2023-03-02T19:45:35.156Z,37.70
2023-03-02T19:48:03.953Z,35.57
2023-03-02T19:50:32.965Z,41.90
2023-03-02T19:53:03.239Z,38.17
2023-03-02T19:55:30.169Z,39.97
2023-03-02T19:58:00.157Z,40.30
2023-03-02T20:00:29.813Z,39.10
2023-03-02T20:02:59.983Z,34.30
2023-03-02T20:05:27.867Z,44.07
2023-03-02T20:07:55.386Z,35.13
2023-03-02T20:10:33.394Z,41.93
2023-03-02T20:13:00.916Z,37.87
2023-03-02T20:15:32.437Z,44.80
2023-03-02T20:18:02.648Z,35.27
2023-03-02T20:20:31.343Z,42.37
2023-03-02T20:23:00.226Z,33.53
2023-03-02T20:25:28.501Z,37.63
2023-03-02T20:27:56.966Z,31.43
2023-03-02T20:30:31.717Z,38.93
2023-03-02T20:32:59.636Z,38.17
2023-03-02T20:35:30.623Z,36.87
2023-03-02T20:38:01.668Z,28.33
2023-03-02T20:40:29.550Z,35.27
2023-03-02T20:42:56.822Z,32.17
2023-03-02T20:45:24.378Z,33.57
2023-03-02T20:47:51.439Z,30.87
2023-03-02T20:50:22.044Z,32.30
2023-03-02T20:52:49.225Z,35.17
2023-03-02T20:55:16.619Z,33.50
2023-03-02T20:57:43.709Z,30.97
2023-03-02T21:00:16.861Z,36.10
2023-03-02T21:02:47.550Z,38.23
2023-03-02T21:05:15.736Z,36.37
2023-03-02T21:07:43.367Z,33.90
2023-03-02T21:10:16.100Z,39.07
2023-03-02T21:12:43.576Z,32.83
2023-03-02T21:15:11.105Z,34.93
2023-03-02T21:17:41.171Z,33.53
2023-03-02T21:20:09.280Z,31.77
2023-03-02T21:22:36.640Z,36.90
2023-03-02T21:25:04.013Z,36.60
2023-03-02T21:27:31.167Z,32.70
2023-03-02T21:29:58.196Z,36.23
2023-03-02T21:32:25.213Z,37.17
2023-03-02T21:34:54.264Z,32.10
2023-03-02T21:37:22.627Z,33.80
2023-03-02T21:39:53.426Z,35.57
2023-03-02T21:42:21.366Z,34.50
2023-03-02T21:44:49.657Z,36.80
2023-03-02T21:47:16.619Z,30.30
2023-03-02T21:49:45.698Z,32.90
2023-03-02T21:52:13.677Z,40.67
2023-03-02T21:54:40.784Z,28.00
2023-03-02T21:57:09.736Z,34.13
2023-03-02T21:59:39.847Z,37.13
2023-03-02T22:02:07.603Z,33.03
2023-03-02T22:04:38.064Z,28.03
2023-03-02T22:07:11.243Z,31.80
2023-03-02T22:09:38.376Z,29.50
2023-03-02T22:12:13.719Z,31.97
2023-03-02T22:14:40.876Z,34.17
2023-03-02T22:17:24.709Z,35.27
2023-03-02T22:19:53.162Z,27.63
2023-03-02T22:22:38.520Z,30.83
2023-03-02T22:25:15.902Z,33.53
2023-03-02T22:27:46.500Z,28.73
2023-03-02T22:30:24.217Z,27.33
2023-03-02T22:32:53.204Z,30.43
2023-03-02T22:35:27.127Z,30.60
2023-03-02T22:38:30.412Z,29.63
2023-03-02T22:40:58.355Z,27.20
2023-03-02T22:43:31.889Z,32.20
2023-03-02T22:46:17.589Z,30.40
2023-03-02T22:48:52.899Z,25.67
2023-03-02T22:51:24.033Z,32.37
2023-03-02T22:53:55.369Z,26.63
2023-03-02T22:56:43.647Z,23.40
2023-03-02T22:59:35.728Z,24.83
2023-03-02T23:02:26.242Z,28.07
2023-03-02T23:04:53.303Z,24.27
2023-03-02T23:07:22.311Z,25.67
2023-03-02T23:09:50.420Z,25.33
2023-03-02T23:12:21.415Z,23.97
2023-03-02T23:14:56.984Z,27.37
2023-03-02T23:17:39.130Z,25.37
2023-03-02T23:20:11.510Z,36.73
2023-03-02T23:22:42.648Z,22.20
2023-03-02T23:25:09.845Z,25.33
2023-03-02T23:27:39.967Z,22.23
2023-03-02T23:30:10.545Z,25.43
2023-03-02T23:32:39.526Z,24.80
2023-03-02T23:35:07.706Z,26.93
2023-03-02T23:37:35.736Z,26.20
2023-03-02T23:40:04.315Z,20.53
2023-03-02T23:42:31.698Z,28.77
2023-03-02T23:45:01.813Z,24.83
2023-03-02T23:47:28.735Z,23.30
2023-03-02T23:49:56.749Z,22.17
2023-03-02T23:52:26.921Z,24.83
2023-03-02T23:54:57.012Z,29.87
2023-03-02T23:57:24.275Z,25.33
2023-03-02T23:59:52.298Z,21.77
